createdAt,value
2017-05-30T00:00:51.152Z,1009.1
2017-05-30T00:02:01.424Z,1009.08
2017-05-30T00:03:11.065Z,1009.06
2017-05-30T00:04:21.332Z,1008.98
2017-05-30T00:05:31.600Z,1008.95
2017-05-30T00:06:41.561Z,1008.87
2017-05-30T00:07:51.264Z,1008.76
2017-05-30T00:09:01.534Z,1008.76
2017-05-30T00:10:11.487Z,1008.7
2017-05-30T00:11:21.759Z,1008.7
2017-05-30T00:12:32.033Z,1008.69
2017-05-30T00:13:41.680Z,1008.74
2017-05-30T00:14:51.395Z,1008.7
2017-05-30T00:16:01.655Z,1008.63
2017-05-30T00:17:11.609Z,1008.56
2017-05-30T00:18:21.568Z,1008.5
2017-05-30T00:19:31.516Z,1008.45
2017-05-30T00:20:41.473Z,1008.43
2017-05-30T00:21:51.745Z,1008.43
2017-05-30T00:23:01.699Z,1008.44
2017-05-30T00:24:11.970Z,1008.4
2017-05-30T00:25:22.239Z,1008.41
2017-05-30T00:26:32.189Z,1008.36
2017-05-30T00:27:42.459Z,1008.34
2017-05-30T00:28:52.728Z,1008.27
2017-05-30T00:30:02.687Z,1008.26
2017-05-30T00:31:12.676Z,1008.26
2017-05-30T00:32:22.984Z,1008.28
2017-05-30T00:33:33.250Z,1008.31
2017-05-30T00:34:42.898Z,1008.32
2017-05-30T00:35:52.859Z,1008.34
2017-05-30T00:37:02.182Z,1008.34
2017-05-30T00:38:11.192Z,1008.38
2017-05-30T00:39:21.465Z,1008.38
2017-05-30T00:40:31.729Z,1008.39
2017-05-30T00:41:41.681Z,1008.41
2017-05-30T00:42:51.950Z,1008.42
2017-05-30T00:44:02.223Z,1008.41
2017-05-30T00:45:11.865Z,1008.45
2017-05-30T00:46:21.827Z,1008.43
2017-05-30T00:47:31.786Z,1008.34
2017-05-30T00:48:41.736Z,1008.33
2017-05-30T00:49:51.392Z,1008.34
2017-05-30T00:51:01.670Z,1008.31
2017-05-30T00:52:11.627Z,1008.29
2017-05-30T00:53:21.580Z,1008.23
2017-05-30T00:54:31.534Z,1008.22
2017-05-30T00:55:41.804Z,1008.18
2017-05-30T00:56:51.763Z,1008.21
2017-05-30T00:58:02.039Z,1008.23
2017-05-30T00:59:11.993Z,1008.26
2017-05-30T01:00:22.265Z,1008.22
2017-05-30T01:01:32.218Z,1008.25
2017-05-30T01:02:42.163Z,1008.27
2017-05-30T01:03:52.122Z,1008.29
2017-05-30T01:05:02.080Z,1008.28
2017-05-30T01:06:11.724Z,1008.29
2017-05-30T01:07:22.000Z,1008.27
2017-05-30T01:08:32.294Z,1008.26
2017-05-30T01:09:41.931Z,1008.26
2017-05-30T01:10:51.572Z,1008.28
2017-05-30T01:12:01.838Z,1008.28
2017-05-30T01:13:11.793Z,1008.29
2017-05-30T01:14:22.082Z,1008.29
2017-05-30T01:15:32.037Z,1008.28
2017-05-30T01:16:41.984Z,1008.29
2017-05-30T01:17:52.260Z,1008.29
2017-05-30T01:19:02.536Z,1008.21
2017-05-30T01:20:12.172Z,1008.26
2017-05-30T01:21:22.131Z,1008.24
2017-05-30T01:22:32.112Z,1008.27
2017-05-30T01:23:42.383Z,1008.31
2017-05-30T01:24:52.659Z,1008.29
2017-05-30T01:26:02.618Z,1008.31
2017-05-30T01:27:12.570Z,1008.36
2017-05-30T01:28:22.532Z,1008.3
2017-05-30T01:29:32.173Z,1008.22
2017-05-30T01:30:42.443Z,1008.2
2017-05-30T01:31:52.720Z,1008.19
2017-05-30T01:33:02.983Z,1008.2
2017-05-30T01:34:12.622Z,1008.2
2017-05-30T01:35:21.968Z,1008.23
2017-05-30T01:36:31.928Z,1008.2
2017-05-30T01:37:41.883Z,1008.2
2017-05-30T01:38:51.848Z,1008.19
2017-05-30T01:40:01.184Z,1008.21
2017-05-30T01:41:11.456Z,1008.14
2017-05-30T01:42:21.723Z,1008.13
2017-05-30T01:43:31.676Z,1008.1
2017-05-30T01:44:41.319Z,1008.1
2017-05-30T01:45:51.626Z,1008.05
2017-05-30T01:47:01.576Z,1008.05
2017-05-30T01:48:11.852Z,1008
2017-05-30T01:49:21.811Z,1008
2017-05-30T01:50:32.096Z,1007.96
2017-05-30T01:51:42.364Z,1007.95
2017-05-30T01:52:52.313Z,1007.87
2017-05-30T01:54:01.649Z,1007.89
2017-05-30T01:55:11.613Z,1007.86
2017-05-30T01:56:21.568Z,1007.84
2017-05-30T01:57:31.833Z,1007.86
2017-05-30T01:58:41.482Z,1007.85
2017-05-30T01:59:51.759Z,1007.85
2017-05-30T02:01:02.067Z,1007.84
2017-05-30T02:02:12.022Z,1007.82
2017-05-30T02:03:21.979Z,1007.81
2017-05-30T02:04:31.621Z,1007.75
2017-05-30T02:05:41.568Z,1007.76
2017-05-30T02:06:51.531Z,1007.76
2017-05-30T02:08:01.820Z,1007.72
2017-05-30T02:09:11.780Z,1007.76
2017-05-30T02:10:22.055Z,1007.74
2017-05-30T02:11:32.326Z,1007.73
2017-05-30T02:12:42.278Z,1007.69
2017-05-30T02:13:52.240Z,1007.66
2017-05-30T02:15:02.508Z,1007.65
2017-05-30T02:16:12.776Z,1007.64
2017-05-30T02:17:22.733Z,1007.62
2017-05-30T02:18:32.690Z,1007.6
2017-05-30T02:19:42.974Z,1007.63
2017-05-30T02:20:52.932Z,1007.59
2017-05-30T02:22:02.573Z,1007.6
2017-05-30T02:23:12.836Z,1007.59
2017-05-30T02:24:22.475Z,1007.57
2017-05-30T02:25:32.181Z,1007.58
2017-05-30T02:26:41.836Z,1007.54
2017-05-30T02:27:52.107Z,1007.54
2017-05-30T02:29:02.061Z,1007.55
2017-05-30T02:30:12.394Z,1007.54
2017-05-30T02:31:22.663Z,1007.5
2017-05-30T02:32:32.674Z,1007.48
2017-05-30T02:33:42.317Z,1007.52
2017-05-30T02:34:52.270Z,1007.49
2017-05-30T02:36:01.937Z,1007.51
2017-05-30T02:37:11.890Z,1007.51
2017-05-30T02:38:21.845Z,1007.46
2017-05-30T02:39:31.857Z,1007.45
2017-05-30T02:40:41.824Z,1007.47
2017-05-30T02:41:52.102Z,1007.47
2017-05-30T02:43:01.422Z,1007.47
2017-05-30T02:44:11.383Z,1007.44
2017-05-30T02:45:21.342Z,1007.48
2017-05-30T02:46:31.607Z,1007.43
2017-05-30T02:47:41.562Z,1007.49
2017-05-30T02:48:50.890Z,1007.52
2017-05-30T02:50:00.530Z,1007.49
2017-05-30T02:51:10.487Z,1007.49
2017-05-30T02:52:20.452Z,1007.5
2017-05-30T02:53:30.408Z,1007.56
2017-05-30T02:54:39.733Z,1007.51
2017-05-30T02:55:50.009Z,1007.55
2017-05-30T02:57:00.281Z,1007.54
2017-05-30T02:58:10.237Z,1007.58
2017-05-30T02:59:20.220Z,1007.54
2017-05-30T03:00:30.500Z,1007.51
2017-05-30T03:01:40.771Z,1007.52
2017-05-30T03:02:50.092Z,1007.55
2017-05-30T03:04:00.366Z,1007.55
2017-05-30T03:05:10.324Z,1007.54
2017-05-30T03:06:20.593Z,1007.52
2017-05-30T03:07:30.865Z,1007.53
2017-05-30T03:08:40.503Z,1007.57
2017-05-30T03:09:50.773Z,1007.52
2017-05-30T03:11:01.061Z,1007.53
2017-05-30T03:12:11.012Z,1007.5
2017-05-30T03:13:20.962Z,1007.52
2017-05-30T03:14:30.981Z,1007.53
2017-05-30T03:15:41.252Z,1007.51
2017-05-30T03:16:51.521Z,1007.51
2017-05-30T03:18:01.483Z,1007.49
2017-05-30T03:19:11.182Z,1007.53
2017-05-30T03:20:21.456Z,1007.53
2017-05-30T03:21:31.719Z,1007.54
2017-05-30T03:22:41.677Z,1007.52
2017-05-30T03:23:51.943Z,1007.55
2017-05-30T03:25:02.202Z,1007.55
2017-05-30T03:26:12.487Z,1007.51
2017-05-30T03:27:22.130Z,1007.56
2017-05-30T03:28:32.083Z,1007.55
2017-05-30T03:29:42.353Z,1007.54
2017-05-30T03:30:52.626Z,1007.57
2017-05-30T03:32:02.893Z,1007.58
2017-05-30T03:33:12.851Z,1007.56
2017-05-30T03:34:23.132Z,1007.57
2017-05-30T03:35:33.415Z,1007.59
2017-05-30T03:36:43.687Z,1007.63
2017-05-30T03:37:53.971Z,1007.59
2017-05-30T03:39:04.242Z,1007.65
2017-05-30T03:40:14.510Z,1007.62
2017-05-30T03:41:23.838Z,1007.58
2017-05-30T03:42:33.789Z,1007.57
2017-05-30T03:43:43.750Z,1007.56
2017-05-30T03:44:53.705Z,1007.53
2017-05-30T03:46:03.349Z,1007.53
2017-05-30T03:47:13.619Z,1007.52
2017-05-30T03:48:23.260Z,1007.54
2017-05-30T03:49:33.532Z,1007.53
2017-05-30T03:50:43.800Z,1007.56
2017-05-30T03:51:53.760Z,1007.56
2017-05-30T03:53:04.037Z,1007.55
2017-05-30T03:54:14.303Z,1007.53
2017-05-30T03:55:23.635Z,1007.56
2017-05-30T03:56:33.589Z,1007.5
2017-05-30T03:57:43.553Z,1007.52
2017-05-30T03:58:53.192Z,1007.48
2017-05-30T04:00:03.484Z,1007.49
2017-05-30T04:01:13.759Z,1007.45
2017-05-30T04:02:24.033Z,1007.47
2017-05-30T04:03:33.993Z,1007.5
2017-05-30T04:04:44.278Z,1007.52
2017-05-30T04:05:54.604Z,1007.49
2017-05-30T04:07:04.880Z,1007.51
2017-05-30T04:08:14.205Z,1007.49
2017-05-30T04:09:24.485Z,1007.51
2017-05-30T04:10:34.445Z,1007.55
2017-05-30T04:11:43.459Z,1007.54
2017-05-30T04:12:53.412Z,1007.58
2017-05-30T04:14:03.687Z,1007.59
2017-05-30T04:15:13.957Z,1007.57
2017-05-30T04:16:23.915Z,1007.6
2017-05-30T04:17:33.870Z,1007.6
2017-05-30T04:18:43.511Z,1007.62
2017-05-30T04:19:53.456Z,1007.6
2017-05-30T04:21:03.728Z,1007.6
2017-05-30T04:22:13.362Z,1007.55
2017-05-30T04:23:23.631Z,1007.53
2017-05-30T04:24:32.960Z,1007.54
2017-05-30T04:25:43.255Z,1007.52
2017-05-30T04:26:52.908Z,1007.49
2017-05-30T04:28:02.862Z,1007.46
2017-05-30T04:29:13.143Z,1007.5
2017-05-30T04:30:23.110Z,1007.46
2017-05-30T04:31:33.064Z,1007.44
2017-05-30T04:32:43.021Z,1007.47
2017-05-30T04:33:53.287Z,1007.43
2017-05-30T04:35:03.247Z,1007.44
2017-05-30T04:36:13.513Z,1007.45
2017-05-30T04:37:23.787Z,1007.46
2017-05-30T04:38:34.068Z,1007.44
2017-05-30T04:39:44.030Z,1007.43
2017-05-30T04:40:53.981Z,1007.44
2017-05-30T04:42:04.251Z,1007.39
2017-05-30T04:43:13.892Z,1007.39
2017-05-30T04:44:23.853Z,1007.4
2017-05-30T04:45:33.808Z,1007.34
2017-05-30T04:46:44.076Z,1007.35
2017-05-30T04:47:54.031Z,1007.32
2017-05-30T04:49:03.674Z,1007.28
2017-05-30T04:50:13.945Z,1007.29
2017-05-30T04:51:23.900Z,1007.25
2017-05-30T04:52:33.853Z,1007.22
2017-05-30T04:53:43.811Z,1007.24
2017-05-30T04:54:53.773Z,1007.14
2017-05-30T04:56:03.733Z,1007.19
2017-05-30T04:57:14.007Z,1007.16
2017-05-30T04:58:24.278Z,1007.14
2017-05-30T04:59:34.553Z,1007.15
2017-05-30T05:00:44.512Z,1007.12
2017-05-30T05:01:54.473Z,1007.1
2017-05-30T05:03:04.437Z,1007.08
2017-05-30T05:04:14.711Z,1007.04
2017-05-30T05:05:24.987Z,1007.08
2017-05-30T05:06:34.633Z,1007.03
2017-05-30T05:07:44.590Z,1007
2017-05-30T05:08:54.877Z,1007.05
2017-05-30T05:10:04.827Z,1007.04
2017-05-30T05:11:14.786Z,1007.03
2017-05-30T05:12:24.737Z,1007
2017-05-30T05:13:35.013Z,1007.04
2017-05-30T05:14:44.666Z,1007
2017-05-30T05:15:54.623Z,1007
2017-05-30T05:17:04.585Z,1006.95
2017-05-30T05:18:14.854Z,1006.95
2017-05-30T05:19:24.811Z,1006.92
2017-05-30T05:20:34.772Z,1006.85
2017-05-30T05:21:44.095Z,1006.87
2017-05-30T05:22:54.358Z,1006.85
2017-05-30T05:24:03.993Z,1006.79
2017-05-30T05:25:13.952Z,1006.81
2017-05-30T05:26:24.222Z,1006.79
2017-05-30T05:27:33.859Z,1006.81
2017-05-30T05:28:43.818Z,1006.84
2017-05-30T05:29:54.104Z,1006.81
2017-05-30T05:31:04.069Z,1006.86
2017-05-30T05:32:14.364Z,1006.9
2017-05-30T05:33:24.321Z,1006.96
2017-05-30T05:34:34.590Z,1006.98
2017-05-30T05:35:44.865Z,1007
2017-05-30T05:36:55.164Z,1007.02
2017-05-30T05:38:05.423Z,1007.02
2017-05-30T05:39:15.066Z,1006.99
2017-05-30T05:40:25.033Z,1006.95
2017-05-30T05:41:34.986Z,1006.89
2017-05-30T05:42:45.265Z,1006.93
2017-05-30T05:43:55.533Z,1006.89
2017-05-30T05:45:05.172Z,1006.93
2017-05-30T05:46:15.125Z,1006.94
2017-05-30T05:47:24.763Z,1006.99
2017-05-30T05:48:34.722Z,1006.98
2017-05-30T05:49:44.360Z,1007.01
2017-05-30T05:50:54.309Z,1006.99
2017-05-30T05:52:04.581Z,1006.95
2017-05-30T05:53:14.219Z,1006.92
2017-05-30T05:54:23.858Z,1006.99
2017-05-30T05:55:33.830Z,1006.98
2017-05-30T05:56:43.792Z,1007.02
2017-05-30T05:57:54.062Z,1007
2017-05-30T05:59:03.706Z,1007.01
2017-05-30T06:00:13.347Z,1006.96
2017-05-30T06:01:23.623Z,1006.94
2017-05-30T06:02:33.259Z,1006.93
2017-05-30T06:03:43.526Z,1006.9
2017-05-30T06:04:53.797Z,1006.88
2017-05-30T06:06:03.757Z,1006.98
2017-05-30T06:07:14.036Z,1006.93
2017-05-30T06:08:23.990Z,1006.99
2017-05-30T06:09:34.270Z,1006.96
2017-05-30T06:10:44.539Z,1006.95
2017-05-30T06:11:54.494Z,1006.89
2017-05-30T06:13:04.136Z,1006.85
2017-05-30T06:14:14.097Z,1006.79
2017-05-30T06:15:24.361Z,1006.82
2017-05-30T06:16:34.321Z,1006.78
2017-05-30T06:17:44.340Z,1006.82
2017-05-30T06:18:54.295Z,1006.72
2017-05-30T06:20:04.571Z,1006.78
2017-05-30T06:21:14.522Z,1006.73
2017-05-30T06:22:24.791Z,1006.73
2017-05-30T06:23:34.746Z,1006.77
2017-05-30T06:24:44.067Z,1006.74
2017-05-30T06:25:54.026Z,1006.8
2017-05-30T06:27:03.984Z,1006.74
2017-05-30T06:28:13.935Z,1006.78
2017-05-30T06:29:23.886Z,1006.77
2017-05-30T06:30:33.527Z,1006.76
2017-05-30T06:31:43.800Z,1006.73
2017-05-30T06:32:53.758Z,1006.72
2017-05-30T06:34:03.397Z,1006.72
2017-05-30T06:35:13.664Z,1006.72
2017-05-30T06:36:23.000Z,1006.73
2017-05-30T06:37:32.637Z,1006.75
2017-05-30T06:38:42.912Z,1006.76
2017-05-30T06:39:52.872Z,1006.76
2017-05-30T06:41:03.157Z,1006.79
2017-05-30T06:42:13.428Z,1006.85
2017-05-30T06:43:23.700Z,1006.84
2017-05-30T06:44:34.025Z,1006.85
2017-05-30T06:45:43.985Z,1006.87
2017-05-30T06:46:54.261Z,1006.87
2017-05-30T06:48:04.532Z,1006.91
2017-05-30T06:49:14.481Z,1006.89
2017-05-30T06:50:24.705Z,1006.92
2017-05-30T06:51:34.926Z,1006.93
2017-05-30T06:52:45.196Z,1006.91
2017-05-30T06:53:55.468Z,1006.92
2017-05-30T06:55:04.788Z,1006.88
2017-05-30T06:56:15.069Z,1006.89
2017-05-30T06:57:25.336Z,1006.86
2017-05-30T06:58:34.976Z,1006.85
2017-05-30T06:59:45.243Z,1006.89
2017-05-30T07:00:54.575Z,1006.93
2017-05-30T07:02:04.530Z,1006.93
2017-05-30T07:03:14.488Z,1006.9
2017-05-30T07:04:24.451Z,1006.92
2017-05-30T07:05:34.725Z,1006.92
2017-05-30T07:06:44.989Z,1006.88
2017-05-30T07:07:54.315Z,1006.89
2017-05-30T07:09:03.645Z,1006.9
2017-05-30T07:10:13.601Z,1006.89
2017-05-30T07:11:23.551Z,1006.86
2017-05-30T07:12:33.197Z,1006.84
2017-05-30T07:13:43.159Z,1006.83
2017-05-30T07:14:53.439Z,1006.84
2017-05-30T07:16:03.533Z,1006.83
2017-05-30T07:17:13.991Z,1006.85
2017-05-30T07:18:24.260Z,1006.84
2017-05-30T07:19:34.221Z,1006.81
2017-05-30T07:20:44.491Z,1006.79
2017-05-30T07:21:54.451Z,1006.81
2017-05-30T07:23:04.411Z,1006.81
2017-05-30T07:24:14.366Z,1006.8
2017-05-30T07:25:24.318Z,1006.82
2017-05-30T07:26:34.590Z,1006.78
2017-05-30T07:27:44.864Z,1006.81
2017-05-30T07:28:54.193Z,1006.85
2017-05-30T07:30:03.863Z,1006.81
2017-05-30T07:31:14.137Z,1006.83
2017-05-30T07:32:24.416Z,1006.83
2017-05-30T07:33:34.060Z,1006.82
2017-05-30T07:34:43.387Z,1006.88
2017-05-30T07:35:53.350Z,1006.89
2017-05-30T07:37:02.990Z,1006.91
2017-05-30T07:38:13.256Z,1006.95
2017-05-30T07:39:23.550Z,1006.91
2017-05-30T07:40:33.829Z,1006.86
2017-05-30T07:41:43.782Z,1006.85
2017-05-30T07:42:53.741Z,1006.86
2017-05-30T07:44:03.700Z,1006.82
2017-05-30T07:45:12.712Z,1006.85
2017-05-30T07:46:22.671Z,1006.83
2017-05-30T07:47:32.624Z,1006.8
2017-05-30T07:48:42.267Z,1006.81
2017-05-30T07:49:52.546Z,1006.79
2017-05-30T07:51:02.505Z,1006.71
2017-05-30T07:52:12.450Z,1006.71
2017-05-30T07:53:22.723Z,1006.7
2017-05-30T07:54:32.679Z,1006.7
2017-05-30T07:55:42.002Z,1006.76
2017-05-30T07:56:51.955Z,1006.75
2017-05-30T07:58:02.231Z,1006.74
2017-05-30T07:59:12.184Z,1006.71
2017-05-30T08:00:21.512Z,1006.72
2017-05-30T08:01:31.778Z,1006.76
2017-05-30T08:02:41.424Z,1006.74
2017-05-30T08:03:50.750Z,1006.71
2017-05-30T08:05:01.029Z,1006.7
2017-05-30T08:06:10.987Z,1006.69
2017-05-30T08:07:20.933Z,1006.67
2017-05-30T08:08:31.197Z,1006.66
2017-05-30T08:09:41.528Z,1006.63
2017-05-30T08:10:50.849Z,1006.64
2017-05-30T08:12:00.804Z,1006.59
2017-05-30T08:13:10.445Z,1006.6
2017-05-30T08:14:20.429Z,1006.61
2017-05-30T08:15:29.763Z,1006.63
2017-05-30T08:16:40.035Z,1006.62
2017-05-30T08:17:49.696Z,1006.58
2017-05-30T08:18:59.984Z,1006.59
2017-05-30T08:20:09.939Z,1006.57
2017-05-30T08:21:19.888Z,1006.55
2017-05-30T08:22:29.854Z,1006.51
2017-05-30T08:23:40.126Z,1006.55
2017-05-30T08:24:50.081Z,1006.55
2017-05-30T08:26:00.357Z,1006.51
2017-05-30T08:27:09.994Z,1006.55
2017-05-30T08:28:19.950Z,1006.53
2017-05-30T08:29:29.590Z,1006.51
2017-05-30T08:30:39.868Z,1006.52
2017-05-30T08:31:50.139Z,1006.54
2017-05-30T08:33:00.097Z,1006.53
2017-05-30T08:34:09.739Z,1006.59
2017-05-30T08:35:20.022Z,1006.61
2017-05-30T08:36:29.664Z,1006.63
2017-05-30T08:37:39.306Z,1006.63
2017-05-30T08:38:49.272Z,1006.61
2017-05-30T08:39:58.913Z,1006.59
2017-05-30T08:41:09.179Z,1006.6
2017-05-30T08:42:19.448Z,1006.55
2017-05-30T08:43:29.772Z,1006.6
2017-05-30T08:44:39.416Z,1006.69
2017-05-30T08:45:49.057Z,1006.77
2017-05-30T08:46:58.698Z,1006.81
2017-05-30T08:48:08.655Z,1006.74
2017-05-30T08:49:18.616Z,1006.76
2017-05-30T08:50:28.567Z,1006.7
2017-05-30T08:51:38.209Z,1006.68
2017-05-30T08:52:48.168Z,1006.7
2017-05-30T08:53:57.494Z,1006.7
2017-05-30T08:55:07.142Z,1006.64
2017-05-30T08:56:17.416Z,1006.65
2017-05-30T08:57:27.373Z,1006.65
2017-05-30T08:58:37.337Z,1006.64
2017-05-30T08:59:47.289Z,1006.63
2017-05-30T09:00:56.621Z,1006.63
2017-05-30T09:02:06.571Z,1006.67
2017-05-30T09:03:16.529Z,1006.65
2017-05-30T09:04:26.798Z,1006.64
2017-05-30T09:05:36.749Z,1006.61
2017-05-30T09:06:46.405Z,1006.64
2017-05-30T09:07:55.729Z,1006.66
2017-05-30T09:09:05.693Z,1006.61
2017-05-30T09:10:14.394Z,1006.59
2017-05-30T09:11:24.344Z,1006.55
2017-05-30T09:12:33.983Z,1006.56
2017-05-30T09:13:44.248Z,1006.53
2017-05-30T09:14:54.519Z,1006.49
2017-05-30T09:16:04.796Z,1006.53
2017-05-30T09:17:14.799Z,1006.59
2017-05-30T09:18:25.084Z,1006.55
2017-05-30T09:19:34.407Z,1006.55
2017-05-30T09:20:44.676Z,1006.59
2017-05-30T09:21:54.001Z,1006.6
2017-05-30T09:23:03.963Z,1006.63
2017-05-30T09:24:13.922Z,1006.59
2017-05-30T09:25:23.877Z,1006.55
2017-05-30T09:26:34.152Z,1006.57
2017-05-30T09:27:44.425Z,1006.57
2017-05-30T09:28:54.703Z,1006.62
2017-05-30T09:30:04.967Z,1006.6
2017-05-30T09:31:14.605Z,1006.69
2017-05-30T09:32:24.569Z,1006.7
2017-05-30T09:33:34.523Z,1006.75
2017-05-30T09:34:44.794Z,1006.84
2017-05-30T09:35:55.072Z,1006.81
2017-05-30T09:37:04.710Z,1006.82
2017-05-30T09:38:14.351Z,1006.84
2017-05-30T09:39:24.328Z,1006.92
2017-05-30T09:40:34.286Z,1006.98
2017-05-30T09:41:44.240Z,1006.97
2017-05-30T09:42:54.187Z,1006.96
2017-05-30T09:44:04.455Z,1006.93
2017-05-30T09:45:14.729Z,1006.94
2017-05-30T09:46:24.680Z,1006.89
2017-05-30T09:47:34.945Z,1006.89
2017-05-30T09:48:44.583Z,1006.88
2017-05-30T09:49:54.228Z,1006.92
2017-05-30T09:51:04.177Z,1006.87
2017-05-30T09:52:13.817Z,1006.86
2017-05-30T09:53:23.458Z,1006.83
2017-05-30T09:54:33.431Z,1006.8
2017-05-30T09:55:43.693Z,1006.8
2017-05-30T09:56:53.330Z,1006.78
2017-05-30T09:58:02.656Z,1006.77
2017-05-30T09:59:12.297Z,1006.76
2017-05-30T10:00:22.564Z,1006.73
2017-05-30T10:01:32.198Z,1006.71
2017-05-30T10:02:42.470Z,1006.69
2017-05-30T10:03:52.423Z,1006.7
2017-05-30T10:05:02.693Z,1006.58
2017-05-30T10:06:12.335Z,1006.61
2017-05-30T10:07:22.599Z,1006.53
2017-05-30T10:08:32.872Z,1006.47
2017-05-30T10:09:42.828Z,1006.43
2017-05-30T10:10:53.087Z,1006.37
2017-05-30T10:12:03.350Z,1006.34
2017-05-30T10:13:12.676Z,1006.33
2017-05-30T10:14:22.629Z,1006.33
2017-05-30T10:15:32.582Z,1006.36
2017-05-30T10:16:41.908Z,1006.33
2017-05-30T10:17:52.168Z,1006.38
2017-05-30T10:19:02.119Z,1006.33
2017-05-30T10:20:12.396Z,1006.37
2017-05-30T10:21:22.033Z,1006.59
2017-05-30T10:22:31.990Z,1006.75
2017-05-30T10:23:41.945Z,1007.18
2017-05-30T10:24:51.579Z,1007.43
2017-05-30T10:26:01.219Z,1006.88
2017-05-30T10:27:11.484Z,1006.53
2017-05-30T10:28:20.805Z,1006.45
2017-05-30T10:29:31.068Z,1006.4
2017-05-30T10:30:41.027Z,1006.34
2017-05-30T10:31:51.293Z,1006.36
2017-05-30T10:33:01.248Z,1006.41
2017-05-30T10:34:11.193Z,1006.48
2017-05-30T10:35:21.146Z,1006.59
2017-05-30T10:36:31.104Z,1006.54
2017-05-30T10:37:41.059Z,1006.54
2017-05-30T10:38:50.381Z,1006.6
2017-05-30T10:40:00.652Z,1006.65
2017-05-30T10:41:10.301Z,1006.7
2017-05-30T10:42:20.583Z,1006.75
2017-05-30T10:43:30.857Z,1006.66
2017-05-30T10:44:41.129Z,1006.63
2017-05-30T10:45:51.395Z,1006.69
2017-05-30T10:47:01.035Z,1006.81
2017-05-30T10:48:11.313Z,1006.72
2017-05-30T10:49:21.583Z,1006.77
2017-05-30T10:50:31.535Z,1006.94
2017-05-30T10:51:40.859Z,1007.03
2017-05-30T10:52:50.499Z,1007.11
2017-05-30T10:54:00.170Z,1007.15
2017-05-30T10:55:09.806Z,1007.09
2017-05-30T10:56:19.444Z,1007.11
2017-05-30T10:57:29.104Z,1007.18
2017-05-30T10:58:39.056Z,1007.19
2017-05-30T10:59:49.323Z,1007.3
2017-05-30T11:00:58.967Z,1007.44
2017-05-30T11:02:08.921Z,1007.45
2017-05-30T11:03:18.245Z,1007.37
2017-05-30T11:04:28.198Z,1007.4
2017-05-30T11:05:38.463Z,1007.48
2017-05-30T11:06:48.414Z,1007.49
2017-05-30T11:07:58.681Z,1007.44
2017-05-30T11:09:08.953Z,1007.54
2017-05-30T11:10:18.595Z,1007.61
2017-05-30T11:11:28.603Z,1008.11
2017-05-30T11:12:38.866Z,1008.65
2017-05-30T11:13:48.825Z,1009.01
2017-05-30T11:14:59.106Z,1009.32
2017-05-30T11:16:09.374Z,1009.65
2017-05-30T11:17:19.642Z,1009.73
2017-05-30T11:18:29.277Z,1010.54
2017-05-30T11:19:39.234Z,1010.36
2017-05-30T11:20:48.871Z,1009.81
2017-05-30T11:21:58.511Z,1009.91
2017-05-30T11:23:08.462Z,1010.16
2017-05-30T11:24:17.789Z,1010.23
2017-05-30T11:25:27.172Z,1010.19
2017-05-30T11:26:37.436Z,1010.13
2017-05-30T11:27:47.078Z,1009.89
2017-05-30T11:28:57.344Z,1009.61
2017-05-30T11:30:06.979Z,1009.49
2017-05-30T11:31:16.925Z,1009.48
2017-05-30T11:32:26.572Z,1009.57
2017-05-30T11:33:36.857Z,1009.45
2017-05-30T11:34:47.154Z,1009.37
2017-05-30T11:35:57.115Z,1009.37
2017-05-30T11:37:07.095Z,1009.5
2017-05-30T11:38:16.736Z,1009.54
2017-05-30T11:39:26.367Z,1009.53
2017-05-30T11:40:36.325Z,1009.44
2017-05-30T11:41:46.282Z,1009.27
2017-05-30T11:42:56.238Z,1009.13
2017-05-30T11:44:06.184Z,1009.01
2017-05-30T11:45:16.138Z,1008.94
2017-05-30T11:46:26.420Z,1008.84
2017-05-30T11:47:36.686Z,1008.79
2017-05-30T11:48:46.688Z,1008.78
2017-05-30T11:49:57.008Z,1008.93
2017-05-30T11:51:06.961Z,1009.14
2017-05-30T11:52:16.920Z,1009.19
2017-05-30T11:53:26.875Z,1009.14
2017-05-30T11:54:37.154Z,1008.96
2017-05-30T11:55:47.425Z,1008.93
2017-05-30T11:56:57.442Z,1008.96
2017-05-30T11:58:07.081Z,1008.99
2017-05-30T11:59:16.721Z,1009
2017-05-30T12:00:26.048Z,1009
2017-05-30T12:01:35.693Z,1009.03
2017-05-30T12:02:45.955Z,1009.03
2017-05-30T12:03:56.224Z,1009.09
2017-05-30T12:05:06.496Z,1009.01
2017-05-30T12:06:16.764Z,1009
2017-05-30T12:07:27.037Z,1008.96
2017-05-30T12:08:37.304Z,1009
2017-05-30T12:09:47.255Z,1008.98
2017-05-30T12:10:57.524Z,1009
2017-05-30T12:12:07.163Z,1008.99
2017-05-30T12:13:17.121Z,1008.98
2017-05-30T12:14:27.071Z,1009.01
2017-05-30T12:15:36.714Z,1009.01
2017-05-30T12:16:46.979Z,1009.01
2017-05-30T12:17:57.254Z,1008.95
2017-05-30T12:19:07.519Z,1008.91
2017-05-30T12:20:17.779Z,1008.91
2017-05-30T12:21:27.416Z,1008.9
2017-05-30T12:22:37.685Z,1008.87
2017-05-30T12:23:47.650Z,1008.82
2017-05-30T12:24:56.972Z,1008.83
2017-05-30T12:26:06.922Z,1008.75
2017-05-30T12:27:16.561Z,1008.71
2017-05-30T12:28:26.826Z,1008.71
2017-05-30T12:29:36.778Z,1008.68
2017-05-30T12:30:46.732Z,1008.7
2017-05-30T12:31:56.999Z,1008.68
2017-05-30T12:33:07.285Z,1008.6
2017-05-30T12:34:17.578Z,1008.55
2017-05-30T12:35:26.905Z,1008.51
2017-05-30T12:36:36.865Z,1008.41
2017-05-30T12:37:46.832Z,1008.42
2017-05-30T12:38:56.780Z,1008.42
2017-05-30T12:40:06.419Z,1008.39
2017-05-30T12:41:16.051Z,1008.4
2017-05-30T12:42:26.002Z,1008.38
2017-05-30T12:43:35.643Z,1008.37
2017-05-30T12:44:45.289Z,1008.39
2017-05-30T12:45:54.929Z,1008.37
2017-05-30T12:47:04.571Z,1008.34
2017-05-30T12:48:13.890Z,1008.4
2017-05-30T12:49:24.160Z,1008.47
2017-05-30T12:50:33.794Z,1008.47
2017-05-30T12:51:43.750Z,1008.47
2017-05-30T12:52:54.021Z,1008.48
2017-05-30T12:54:03.339Z,1008.5
2017-05-30T12:55:12.975Z,1008.52
2017-05-30T12:56:22.301Z,1008.52
2017-05-30T12:57:32.588Z,1008.49
2017-05-30T12:58:42.541Z,1008.5
2017-05-30T12:59:52.177Z,1008.48
2017-05-30T13:01:02.456Z,1008.46
2017-05-30T13:02:12.406Z,1008.45
2017-05-30T13:03:22.670Z,1008.47
2017-05-30T13:04:32.635Z,1008.41
2017-05-30T13:05:42.280Z,1008.39
2017-05-30T13:06:51.912Z,1008.38
2017-05-30T13:08:02.175Z,1008.38
2017-05-30T13:09:11.812Z,1008.41
2017-05-30T13:10:21.452Z,1008.45
2017-05-30T13:11:31.725Z,1008.49
2017-05-30T13:12:41.363Z,1008.53
2017-05-30T13:13:51.306Z,1008.57
2017-05-30T13:15:00.947Z,1008.52
2017-05-30T13:16:10.898Z,1008.51
2017-05-30T13:17:21.168Z,1008.48
2017-05-30T13:18:30.838Z,1008.47
2017-05-30T13:19:40.794Z,1008.45
2017-05-30T13:20:51.065Z,1008.41
2017-05-30T13:22:01.020Z,1008.43
2017-05-30T13:23:10.974Z,1008.41
2017-05-30T13:24:20.611Z,1008.37
2017-05-30T13:25:30.247Z,1008.36
2017-05-30T13:26:39.888Z,1008.34
2017-05-30T13:27:50.167Z,1008.29
2017-05-30T13:29:00.117Z,1008.28
2017-05-30T13:30:09.752Z,1008.24
2017-05-30T13:31:19.391Z,1008.22
2017-05-30T13:32:29.041Z,1008.18
2017-05-30T13:33:38.991Z,1008.18
2017-05-30T13:34:48.949Z,1008.18
2017-05-30T13:35:59.217Z,1008.2
2017-05-30T13:37:09.484Z,1008.17
2017-05-30T13:38:19.192Z,1008.14
2017-05-30T13:39:28.829Z,1008.17
2017-05-30T13:40:39.093Z,1008.18
2017-05-30T13:41:49.041Z,1008.17
2017-05-30T13:42:58.684Z,1008.18
2017-05-30T13:44:08.641Z,1008.15
2017-05-30T13:45:18.280Z,1008.16
2017-05-30T13:46:28.242Z,1008.12
2017-05-30T13:47:38.191Z,1008.1
2017-05-30T13:48:48.148Z,1008.07
2017-05-30T13:49:58.429Z,1008.06
2017-05-30T13:51:08.379Z,1008.08
2017-05-30T13:52:17.705Z,1008.04
2017-05-30T13:53:27.410Z,1008
2017-05-30T13:54:37.368Z,1008.03
2017-05-30T13:55:47.330Z,1008.05
2017-05-30T13:56:57.597Z,1008.05
2017-05-30T13:58:07.867Z,1008.04
2017-05-30T13:59:18.135Z,1008.02
2017-05-30T14:00:28.092Z,1008.02
2017-05-30T14:01:38.369Z,1008.01
2017-05-30T14:02:48.318Z,1007.96
2017-05-30T14:03:57.958Z,1008.01
2017-05-30T14:05:08.214Z,1008.03
2017-05-30T14:06:18.488Z,1008.04
2017-05-30T14:07:28.754Z,1008.04
2017-05-30T14:08:39.011Z,1008.07
2017-05-30T14:09:48.971Z,1008.1
2017-05-30T14:10:58.945Z,1008.14